createdAt,value
2022-08-17T00:01:30.360Z,17.28
2022-08-17T00:04:26.541Z,17.26
2022-08-17T00:07:13.307Z,17.30
2022-08-17T00:10:01.515Z,17.28
2022-08-17T00:12:48.337Z,17.32
2022-08-17T00:15:35.046Z,17.28
2022-08-17T00:19:01.627Z,17.19
2022-08-17T00:21:59.923Z,17.15
2022-08-17T00:24:36.062Z,17.14
2022-08-17T00:27:24.175Z,17.08
2022-08-17T00:30:14.333Z,17.00
2022-08-17T00:33:13.956Z,16.95
2022-08-17T00:36:06.061Z,16.94
2022-08-17T00:38:52.969Z,16.94
2022-08-17T00:41:42.376Z,16.88
2022-08-17T00:44:31.286Z,16.87
2022-08-17T00:47:18.135Z,16.89
2022-08-17T00:50:06.365Z,16.84
2022-08-17T00:52:57.222Z,16.87
2022-08-17T00:55:43.932Z,16.88
2022-08-17T00:58:36.666Z,16.85
2022-08-17T01:01:26.249Z,16.79
2022-08-17T01:04:14.320Z,16.76
2022-08-17T01:07:03.012Z,16.73
2022-08-17T01:09:50.046Z,16.71
2022-08-17T01:12:38.185Z,16.70
2022-08-17T01:15:25.074Z,16.76
2022-08-17T01:18:14.816Z,16.70
2022-08-17T01:21:08.060Z,16.65
2022-08-17T01:23:57.073Z,16.64
2022-08-17T01:26:47.228Z,16.62
2022-08-17T01:29:38.040Z,16.62
2022-08-17T01:32:25.123Z,16.61
2022-08-17T01:35:11.789Z,16.57
2022-08-17T01:37:58.630Z,16.56
2022-08-17T01:40:50.622Z,16.54
2022-08-17T01:43:56.918Z,16.49
2022-08-17T01:46:43.883Z,16.51
2022-08-17T01:49:30.612Z,16.48
2022-08-17T01:52:19.165Z,16.44
2022-08-17T01:55:07.710Z,16.38
2022-08-17T01:57:56.131Z,16.35
2022-08-17T02:00:59.991Z,16.29
2022-08-17T02:03:56.267Z,16.29
2022-08-17T02:06:54.053Z,16.26
2022-08-17T02:09:41.201Z,16.23
2022-08-17T02:12:38.397Z,16.26
2022-08-17T02:15:28.721Z,16.27
2022-08-17T02:18:16.324Z,16.27
2022-08-17T02:21:03.210Z,16.19
2022-08-17T02:23:51.341Z,16.13
2022-08-17T02:26:38.309Z,16.09
2022-08-17T02:29:25.081Z,16.08
2022-08-17T02:32:20.913Z,16.02
2022-08-17T02:35:15.711Z,16.00
2022-08-17T02:38:06.888Z,15.98
2022-08-17T02:40:53.649Z,15.98
2022-08-17T02:43:40.962Z,15.96
2022-08-17T02:46:28.426Z,15.96
2022-08-17T02:49:16.442Z,15.96
2022-08-17T02:52:04.875Z,15.94
2022-08-17T02:54:51.807Z,15.98
2022-08-17T02:57:38.808Z,15.93
2022-08-17T03:00:29.377Z,15.88
2022-08-17T03:03:19.652Z,15.66
2022-08-17T03:06:09.164Z,15.83
2022-08-17T03:08:55.972Z,15.82
2022-08-17T03:11:42.694Z,15.83
2022-08-17T03:14:29.255Z,15.82
2022-08-17T03:17:17.493Z,15.82
2022-08-17T03:20:05.415Z,15.83
2022-08-17T03:23:01.751Z,15.80
2022-08-17T03:25:49.896Z,15.80
2022-08-17T03:28:40.667Z,15.79
2022-08-17T03:31:27.604Z,15.78
2022-08-17T03:34:14.711Z,15.66
2022-08-17T03:37:01.342Z,15.70
2022-08-17T03:39:49.412Z,15.67
2022-08-17T03:42:38.259Z,15.68
2022-08-17T03:45:40.510Z,15.62
2022-08-17T03:48:54.818Z,15.59
2022-08-17T03:51:58.873Z,15.58
2022-08-17T03:55:12.526Z,15.60
2022-08-17T03:58:00.478Z,15.61
2022-08-17T04:00:47.474Z,15.62
2022-08-17T04:03:34.591Z,15.52
2022-08-17T04:06:21.097Z,15.60
2022-08-17T04:09:08.392Z,15.60
2022-08-17T04:11:55.589Z,15.56
2022-08-17T04:14:53.223Z,15.67
2022-08-17T04:17:41.465Z,15.66
2022-08-17T04:20:28.383Z,15.65
2022-08-17T04:23:17.909Z,15.66
2022-08-17T04:26:05.317Z,15.62
2022-08-17T04:28:52.141Z,15.70
2022-08-17T04:31:40.238Z,15.72
2022-08-17T04:34:27.055Z,15.85
2022-08-17T04:37:13.813Z,15.90
2022-08-17T04:40:14.472Z,16.00
2022-08-17T04:43:06.149Z,16.24
2022-08-17T04:45:56.658Z,17.25
2022-08-17T04:48:47.294Z,18.04
2022-08-17T04:51:35.998Z,18.35
2022-08-17T04:54:23.047Z,18.28
2022-08-17T04:57:09.670Z,17.97
2022-08-17T04:59:56.451Z,17.77
2022-08-17T05:02:49.880Z,17.49
2022-08-17T05:05:43.225Z,17.75
2022-08-17T05:08:30.232Z,18.60
2022-08-17T05:11:16.990Z,19.44
2022-08-17T05:14:04.621Z,20.00
2022-08-17T05:16:51.283Z,20.12
2022-08-17T05:19:38.158Z,20.11
2022-08-17T05:22:27.218Z,20.15
2022-08-17T05:25:14.567Z,20.53
2022-08-17T05:28:02.203Z,20.60
2022-08-17T05:30:50.213Z,20.60
2022-08-17T05:33:42.667Z,20.49
2022-08-17T05:36:42.691Z,20.53
2022-08-17T05:39:32.537Z,20.59
2022-08-17T05:42:20.092Z,20.48
2022-08-17T05:45:07.766Z,20.31
2022-08-17T05:47:54.385Z,20.05
2022-08-17T05:50:50.715Z,19.56
2022-08-17T05:53:44.609Z,19.29
2022-08-17T05:56:48.823Z,19.05
2022-08-17T05:59:45.778Z,19.12
2022-08-17T06:02:50.166Z,19.34
2022-08-17T06:05:49.676Z,19.37
2022-08-17T06:08:46.253Z,19.44
2022-08-17T06:11:40.535Z,19.52
2022-08-17T06:14:48.344Z,19.67
2022-08-17T06:17:35.810Z,19.81
2022-08-17T06:20:22.633Z,19.91
2022-08-17T06:23:14.566Z,20.09
2022-08-17T06:26:05.419Z,20.40
2022-08-17T06:28:56.169Z,20.61
2022-08-17T06:31:44.690Z,20.75
2022-08-17T06:34:35.667Z,20.97
2022-08-17T06:37:52.107Z,21.29
2022-08-17T06:40:58.242Z,21.47
2022-08-17T06:44:01.927Z,21.52
2022-08-17T06:46:52.361Z,21.52
2022-08-17T06:49:50.545Z,21.46
2022-08-17T06:52:49.913Z,21.34
2022-08-17T06:55:45.312Z,21.57
2022-08-17T06:58:33.421Z,21.75
2022-08-17T07:01:31.038Z,21.92
2022-08-17T07:04:22.559Z,22.03
2022-08-17T07:07:26.152Z,22.12
2022-08-17T07:10:14.791Z,22.28
2022-08-17T07:13:26.619Z,22.43
2022-08-17T07:16:19.594Z,22.51
2022-08-17T07:19:11.050Z,22.61
2022-08-17T07:22:08.030Z,22.80
2022-08-17T07:24:58.603Z,22.92
2022-08-17T07:27:51.180Z,22.93
2022-08-17T07:30:47.340Z,23.05
2022-08-17T07:33:38.320Z,23.24
2022-08-17T07:36:33.779Z,23.32
2022-08-17T07:39:28.005Z,23.53
2022-08-17T07:42:14.946Z,23.71
2022-08-17T07:45:24.117Z,23.92
2022-08-17T07:48:21.580Z,24.13
2022-08-17T07:51:19.328Z,24.27
2022-08-17T07:54:25.473Z,24.35
2022-08-17T07:57:30.795Z,24.58
2022-08-17T08:00:31.651Z,24.65
2022-08-17T08:03:27.325Z,24.83
2022-08-17T08:06:21.807Z,24.94
2022-08-17T08:09:09.305Z,24.93
2022-08-17T08:11:57.489Z,25.15
2022-08-17T08:14:54.656Z,25.40
2022-08-17T08:17:52.932Z,25.47
2022-08-17T08:20:53.474Z,25.61
2022-08-17T08:23:47.706Z,25.74
2022-08-17T08:26:42.399Z,25.87
2022-08-17T08:29:44.225Z,25.95
2022-08-17T08:32:50.926Z,25.96
2022-08-17T08:35:44.540Z,26.17
2022-08-17T08:38:47.479Z,26.26
2022-08-17T08:41:44.922Z,26.39
2022-08-17T08:45:00.029Z,26.47
2022-08-17T08:48:05.886Z,26.64
2022-08-17T08:51:01.149Z,26.80
2022-08-17T08:53:58.971Z,26.92
2022-08-17T08:57:21.462Z,26.97
2022-08-17T09:00:08.820Z,27.29
2022-08-17T09:03:52.757Z,27.55
2022-08-17T09:07:09.351Z,27.53
2022-08-17T09:10:10.410Z,27.54
2022-08-17T09:13:10.184Z,27.45
2022-08-17T09:16:02.238Z,27.52
2022-08-17T09:19:02.231Z,27.73
2022-08-17T09:21:55.010Z,28.10
2022-08-17T09:24:47.825Z,28.35
2022-08-17T09:27:39.425Z,28.44
2022-08-17T09:30:29.386Z,28.47
2022-08-17T09:33:26.258Z,28.60
2022-08-17T09:36:21.842Z,28.65
2022-08-17T09:39:14.590Z,28.47
2022-08-17T09:42:15.500Z,28.48
2022-08-17T09:45:17.351Z,28.65
2022-08-17T09:48:13.157Z,29.05
2022-08-17T09:51:08.051Z,29.20
2022-08-17T09:54:21.071Z,29.10
2022-08-17T09:57:30.226Z,29.21
2022-08-17T10:00:25.239Z,29.39
2022-08-17T10:03:38.270Z,29.54
2022-08-17T10:06:31.443Z,29.76
2022-08-17T10:09:28.730Z,29.97
2022-08-17T10:12:30.095Z,30.07
2022-08-17T10:15:37.693Z,29.92
2022-08-17T10:18:37.815Z,29.53
2022-08-17T10:21:44.439Z,29.64
2022-08-17T10:25:21.618Z,29.47
2022-08-17T10:28:03.425Z,29.88
2022-08-17T10:31:10.407Z,29.92
2022-08-17T10:34:38.886Z,30.05
2022-08-17T10:38:06.743Z,29.98
2022-08-17T10:40:57.365Z,29.78
2022-08-17T10:44:38.353Z,29.72
2022-08-17T10:47:12.875Z,29.77
2022-08-17T10:50:34.457Z,29.86
2022-08-17T10:53:54.502Z,29.73
2022-08-17T10:56:45.077Z,29.70
2022-08-17T10:59:53.192Z,29.55
2022-08-17T11:02:49.577Z,29.81
2022-08-17T11:05:58.925Z,29.75
2022-08-17T11:09:27.961Z,29.41
2022-08-17T11:12:27.963Z,28.97
2022-08-17T11:15:25.567Z,28.82
2022-08-17T11:18:46.814Z,28.53
2022-08-17T11:22:08.212Z,28.46
2022-08-17T11:24:58.602Z,28.44
2022-08-17T11:27:47.256Z,28.56
2022-08-17T11:30:52.293Z,28.96
2022-08-17T11:33:58.979Z,29.72
2022-08-17T11:37:27.419Z,30.10
2022-08-17T11:40:43.242Z,30.45
2022-08-17T11:43:56.922Z,30.80
2022-08-17T11:47:14.813Z,31.11
2022-08-17T11:50:36.995Z,31.22
2022-08-17T11:54:21.538Z,31.14
2022-08-17T11:58:01.825Z,30.88
2022-08-17T12:00:57.769Z,30.56
2022-08-17T12:03:54.024Z,30.33
2022-08-17T12:06:47.947Z,29.75
2022-08-17T12:09:39.951Z,29.25
2022-08-17T12:12:31.464Z,29.14
2022-08-17T12:15:20.760Z,29.04
2022-08-17T12:18:08.875Z,29.20
2022-08-17T12:21:25.371Z,29.05
2022-08-17T12:24:24.127Z,29.14
2022-08-17T12:27:13.136Z,29.32
2022-08-17T12:30:00.493Z,29.33
2022-08-17T12:32:48.591Z,29.61
2022-08-17T12:35:39.040Z,29.75
2022-08-17T12:38:32.745Z,29.87
2022-08-17T12:41:34.241Z,30.12
2022-08-17T12:44:23.394Z,30.18
2022-08-17T12:47:20.967Z,29.92
2022-08-17T12:50:29.516Z,29.89
2022-08-17T12:53:24.870Z,30.18
2022-08-17T12:56:14.257Z,30.14
2022-08-17T12:59:02.421Z,30.20
2022-08-17T13:01:49.504Z,30.28
2022-08-17T13:04:56.179Z,30.65
2022-08-17T13:07:43.789Z,30.62
2022-08-17T13:10:33.838Z,30.52
2022-08-17T13:13:28.044Z,30.46
2022-08-17T13:16:20.262Z,30.31
2022-08-17T13:19:10.198Z,30.36
2022-08-17T13:22:00.034Z,30.52
2022-08-17T13:24:54.580Z,30.42
2022-08-17T13:27:44.155Z,30.16
2022-08-17T13:30:33.806Z,29.61
2022-08-17T13:33:43.282Z,29.34
2022-08-17T13:36:33.784Z,29.26
2022-08-17T13:39:23.891Z,29.43
2022-08-17T13:42:32.866Z,29.61
2022-08-17T13:45:44.964Z,30.04
2022-08-17T13:48:37.473Z,30.37
2022-08-17T13:51:33.879Z,30.73
2022-08-17T13:54:27.157Z,31.01
2022-08-17T13:57:22.853Z,31.06
2022-08-17T14:00:13.324Z,31.05
2022-08-17T14:03:03.651Z,30.64
2022-08-17T14:05:51.752Z,30.42
2022-08-17T14:08:38.369Z,30.22
2022-08-17T14:11:25.690Z,29.81
2022-08-17T14:14:13.321Z,29.49
2022-08-17T14:16:59.848Z,29.32
2022-08-17T14:19:48.202Z,29.22
2022-08-17T14:22:38.210Z,29.07
2022-08-17T14:25:28.557Z,29.15
2022-08-17T14:28:15.348Z,28.94
2022-08-17T14:31:03.067Z,29.02
2022-08-17T14:33:49.615Z,28.97
2022-08-17T14:36:40.991Z,28.83
2022-08-17T14:39:34.666Z,28.87
2022-08-17T14:42:24.576Z,28.92
2022-08-17T14:45:32.075Z,28.80
2022-08-17T14:48:19.756Z,28.81
2022-08-17T14:51:06.874Z,28.72
2022-08-17T14:53:55.032Z,28.56
2022-08-17T14:56:41.587Z,28.51
2022-08-17T14:59:32.613Z,28.54
2022-08-17T15:02:19.811Z,28.86
2022-08-17T15:05:07.680Z,29.25
2022-08-17T15:07:55.883Z,29.54
2022-08-17T15:10:44.864Z,29.84
2022-08-17T15:13:32.042Z,30.04
2022-08-17T15:16:20.158Z,30.12
2022-08-17T15:19:07.978Z,29.97
2022-08-17T15:21:54.939Z,29.85
2022-08-17T15:24:41.603Z,29.85
2022-08-17T15:27:32.563Z,29.52
2022-08-17T15:30:19.980Z,29.25
2022-08-17T15:33:06.683Z,29.11
2022-08-17T15:35:54.245Z,29.07
2022-08-17T15:38:41.151Z,29.04
2022-08-17T15:41:31.818Z,28.89
2022-08-17T15:44:19.800Z,28.80
2022-08-17T15:47:07.010Z,28.64
2022-08-17T15:49:57.941Z,28.61
2022-08-17T15:52:47.622Z,28.53
2022-08-17T15:55:34.790Z,28.44
2022-08-17T15:58:21.240Z,28.43
2022-08-17T16:03:01.563Z,28.32
2022-08-17T16:04:43.999Z,28.16
2022-08-17T16:07:32.510Z,27.99
2022-08-17T16:10:19.771Z,27.87
2022-08-17T16:13:18.325Z,27.96
2022-08-17T16:16:08.359Z,27.89
2022-08-17T16:18:59.222Z,27.98
2022-08-17T16:21:46.113Z,28.10
2022-08-17T16:24:33.406Z,28.22
2022-08-17T16:27:21.319Z,28.12
2022-08-17T16:30:16.470Z,28.03
2022-08-17T16:33:05.808Z,28.25
2022-08-17T16:35:55.158Z,28.14
2022-08-17T16:38:42.476Z,27.96
2022-08-17T16:41:45.094Z,27.89
2022-08-17T16:44:33.457Z,27.83
2022-08-17T16:47:20.653Z,27.83
2022-08-17T16:50:09.211Z,27.75
2022-08-17T16:53:06.714Z,27.66
2022-08-17T16:55:53.496Z,27.42
2022-08-17T16:58:40.225Z,27.38
2022-08-17T17:01:28.742Z,27.16
2022-08-17T17:04:18.679Z,27.04
2022-08-17T17:07:21.074Z,26.77
2022-08-17T17:10:13.706Z,26.65
2022-08-17T17:13:03.798Z,26.58
2022-08-17T17:15:55.683Z,26.57
2022-08-17T17:18:52.421Z,26.53
2022-08-17T17:21:47.105Z,26.41
2022-08-17T17:24:45.911Z,26.33
2022-08-17T17:27:47.393Z,26.24
2022-08-17T17:30:41.012Z,26.14
2022-08-17T17:33:34.690Z,26.09
2022-08-17T17:36:27.226Z,26.04
2022-08-17T17:39:18.463Z,25.87
2022-08-17T17:42:09.859Z,25.89
2022-08-17T17:45:04.606Z,25.81
2022-08-17T17:47:51.584Z,25.75
2022-08-17T17:51:12.027Z,25.65
2022-08-17T17:54:07.687Z,25.59
2022-08-17T17:57:03.248Z,25.50
2022-08-17T17:59:57.705Z,25.38
2022-08-17T18:03:06.033Z,25.29
2022-08-17T18:06:12.733Z,25.20
2022-08-17T18:09:10.331Z,25.15
2022-08-17T18:12:13.957Z,25.04
2022-08-17T18:15:22.880Z,24.92
2022-08-17T18:18:37.775Z,24.80
2022-08-17T18:21:30.027Z,24.62
2022-08-17T18:24:30.948Z,24.53
2022-08-17T18:27:24.912Z,24.52
2022-08-17T18:30:27.359Z,24.40
2022-08-17T18:33:26.902Z,24.29
2022-08-17T18:36:14.170Z,24.18
2022-08-17T18:39:12.273Z,24.10
2022-08-17T18:44:49.600Z,24.02
2022-08-17T18:47:54.726Z,23.96
2022-08-17T18:50:42.909Z,23.90
2022-08-17T18:53:35.240Z,23.84
2022-08-17T18:56:31.509Z,23.69
2022-08-17T18:59:28.983Z,23.75
2022-08-17T19:02:45.592Z,23.70
2022-08-17T19:05:37.553Z,23.68
2022-08-17T19:08:34.972Z,23.61
2022-08-17T19:11:27.167Z,23.55
2022-08-17T19:14:16.761Z,23.51
2022-08-17T19:17:10.552Z,23.45
2022-08-17T19:20:02.318Z,23.39
2022-08-17T19:23:06.620Z,23.33
2022-08-17T19:25:58.449Z,23.29
2022-08-17T19:28:48.906Z,23.22
2022-08-17T19:31:36.274Z,23.29
2022-08-17T19:34:33.417Z,23.33
2022-08-17T19:37:33.136Z,23.19
2022-08-17T19:40:51.570Z,23.08
2022-08-17T19:43:54.526Z,22.97
2022-08-17T19:46:49.936Z,22.94
2022-08-17T19:49:48.544Z,22.88
2022-08-17T19:52:57.437Z,22.85
2022-08-17T19:55:53.768Z,22.77
2022-08-17T19:59:01.242Z,22.71
2022-08-17T20:01:52.593Z,22.58
2022-08-17T20:04:43.802Z,22.68
2022-08-17T20:07:40.048Z,22.59
2022-08-17T20:10:40.909Z,22.53
2022-08-17T20:13:36.177Z,22.60
2022-08-17T20:16:24.929Z,22.50
2022-08-17T20:19:22.885Z,22.58
2022-08-17T20:22:13.183Z,22.53
2022-08-17T20:25:08.244Z,22.60
2022-08-17T20:28:00.653Z,22.48
2022-08-17T20:30:53.622Z,22.54
2022-08-17T20:33:41.437Z,22.44
2022-08-17T20:36:28.317Z,22.37
2022-08-17T20:39:33.606Z,22.34
2022-08-17T20:42:33.711Z,22.30
2022-08-17T20:46:12.852Z,22.27
2022-08-17T20:49:17.167Z,22.22
2022-08-17T20:52:08.872Z,22.18
2022-08-17T20:54:58.137Z,22.11
2022-08-17T20:57:49.372Z,22.04
2022-08-17T21:00:50.374Z,22.13
2022-08-17T21:03:51.791Z,22.09
2022-08-17T21:07:29.246Z,22.02
2022-08-17T21:10:19.590Z,21.96
2022-08-17T21:13:47.037Z,21.91
2022-08-17T21:16:43.010Z,21.88
2022-08-17T21:20:09.726Z,21.89
2022-08-17T21:23:16.369Z,21.84
2022-08-17T21:26:13.681Z,21.83
2022-08-17T21:29:30.064Z,21.79
2022-08-17T21:32:24.446Z,21.76
2022-08-17T21:35:31.241Z,21.71
2022-08-17T21:38:22.365Z,21.70
2022-08-17T21:41:20.828Z,21.69
2022-08-17T21:44:21.728Z,21.68
2022-08-17T21:47:20.092Z,21.64
2022-08-17T21:50:20.163Z,21.58
2022-08-17T21:53:08.865Z,21.53
2022-08-17T21:55:57.060Z,21.49
2022-08-17T21:58:48.533Z,21.47
2022-08-17T22:01:38.388Z,21.38
2022-08-17T22:04:31.564Z,21.42
2022-08-17T22:07:36.182Z,21.39
2022-08-17T22:10:32.802Z,21.37
2022-08-17T22:13:24.232Z,21.33
2022-08-17T22:16:27.966Z,21.35
2022-08-17T22:19:16.259Z,21.37
2022-08-17T22:22:05.181Z,21.37
2022-08-17T22:24:56.840Z,21.34
2022-08-17T22:27:55.898Z,21.29
2022-08-17T22:30:59.460Z,21.25
2022-08-17T22:33:49.093Z,21.22
2022-08-17T22:36:39.015Z,21.21
2022-08-17T22:39:42.141Z,21.19
2022-08-17T22:42:28.979Z,21.17
2022-08-17T22:45:15.748Z,21.15
2022-08-17T22:48:04.248Z,21.18
2022-08-17T22:50:51.390Z,21.12
2022-08-17T22:53:55.632Z,21.09
2022-08-17T22:57:07.436Z,21.05
2022-08-17T22:59:57.648Z,21.02
2022-08-17T23:03:10.562Z,21.02
2022-08-17T23:06:06.310Z,21.03
2022-08-17T23:08:54.990Z,21.01
2022-08-17T23:11:49.089Z,20.80
2022-08-17T23:14:41.273Z,21.01
2022-08-17T23:17:30.389Z,21.03
2022-08-17T23:20:20.404Z,21.04
2022-08-17T23:23:09.039Z,20.91
2022-08-17T23:25:55.712Z,21.02
2022-08-17T23:28:43.908Z,21.05
2022-08-17T23:31:34.673Z,21.09
2022-08-17T23:34:21.524Z,21.10
2022-08-17T23:37:11.296Z,21.09
2022-08-17T23:39:58.214Z,21.07
2022-08-17T23:42:47.292Z,21.06
2022-08-17T23:45:33.961Z,21.03
2022-08-17T23:48:36.345Z,21.05
2022-08-17T23:51:28.609Z,21.03
2022-08-17T23:54:22.816Z,21.02
2022-08-17T23:57:09.993Z,21.01
2022-08-17T23:59:56.910Z,20.98
